createdAt,value
2023-05-23T00:00:07.098Z,9.32
2023-05-23T00:02:41.557Z,9.32
2023-05-23T00:05:10.453Z,9.29
2023-05-23T00:07:38.719Z,9.26
2023-05-23T00:10:07.801Z,9.27
2023-05-23T00:12:39.562Z,9.26
2023-05-23T00:15:10.035Z,9.21
2023-05-23T00:17:39.721Z,9.24
2023-05-23T00:20:11.119Z,9.23
2023-05-23T00:22:43.064Z,9.16
2023-05-23T00:25:12.268Z,9.23
2023-05-23T00:27:41.995Z,9.24
2023-05-23T00:30:10.777Z,9.22
2023-05-23T00:32:39.249Z,9.24
2023-05-23T00:35:08.896Z,9.16
2023-05-23T00:37:37.228Z,9.00
2023-05-23T00:40:06.539Z,8.92
2023-05-23T00:42:34.875Z,8.85
2023-05-23T00:45:05.012Z,8.76
2023-05-23T00:47:33.844Z,8.78
2023-05-23T00:50:02.292Z,8.68
2023-05-23T00:52:32.686Z,8.67
2023-05-23T00:55:01.148Z,8.60
2023-05-23T00:57:31.125Z,8.67
2023-05-23T00:59:59.421Z,8.64
2023-05-23T01:02:32.364Z,8.60
2023-05-23T01:05:02.500Z,8.58
2023-05-23T01:07:32.640Z,8.52
2023-05-23T01:10:01.161Z,8.46
2023-05-23T01:12:41.634Z,8.44
2023-05-23T01:15:13.571Z,8.40
2023-05-23T01:17:49.798Z,8.45
2023-05-23T01:20:22.962Z,8.47
2023-05-23T01:23:06.951Z,8.46
2023-05-23T01:25:59.529Z,8.51
2023-05-23T01:28:33.332Z,8.52
2023-05-23T01:31:05.219Z,8.52
2023-05-23T01:33:34.652Z,8.48
2023-05-23T01:36:04.635Z,8.46
2023-05-23T01:38:33.033Z,8.40
2023-05-23T01:41:01.994Z,8.47
2023-05-23T01:43:31.881Z,8.47
2023-05-23T01:46:01.617Z,8.47
2023-05-23T01:48:32.287Z,8.43
2023-05-23T01:51:00.870Z,8.42
2023-05-23T01:53:31.680Z,8.39
2023-05-23T01:56:03.422Z,8.43
2023-05-23T01:58:33.880Z,8.43
2023-05-23T02:01:03.240Z,8.51
2023-05-23T02:03:32.143Z,8.54
2023-05-23T02:06:00.389Z,8.54
2023-05-23T02:08:29.103Z,8.56
2023-05-23T02:10:57.616Z,8.47
2023-05-23T02:13:26.441Z,8.59
2023-05-23T02:15:56.252Z,8.60
2023-05-23T02:18:26.384Z,8.66
2023-05-23T02:21:14.620Z,8.74
2023-05-23T02:23:43.030Z,8.83
2023-05-23T02:26:11.394Z,8.88
2023-05-23T02:28:39.874Z,8.96
2023-05-23T02:31:10.261Z,9.07
2023-05-23T02:33:38.767Z,9.16
2023-05-23T02:36:07.399Z,9.21
2023-05-23T02:38:35.843Z,9.38
2023-05-23T02:41:04.191Z,9.55
2023-05-23T02:43:32.812Z,9.74
2023-05-23T02:46:01.197Z,9.94
2023-05-23T02:48:31.228Z,10.12
2023-05-23T02:50:59.704Z,10.30
2023-05-23T02:53:28.007Z,10.50
2023-05-23T02:55:56.771Z,10.59
2023-05-23T02:58:25.499Z,10.80
2023-05-23T03:00:53.882Z,11.18
2023-05-23T03:03:22.344Z,11.41
2023-05-23T03:05:52.288Z,11.61
2023-05-23T03:08:20.569Z,11.79
2023-05-23T03:10:48.852Z,11.98
2023-05-23T03:13:17.437Z,12.06
2023-05-23T03:15:47.366Z,12.09
2023-05-23T03:18:16.391Z,12.27
2023-05-23T03:20:44.678Z,12.31
2023-05-23T03:23:14.403Z,12.36
2023-05-23T03:25:44.018Z,12.39
2023-05-23T03:28:13.105Z,12.55
2023-05-23T03:30:41.515Z,12.62
2023-05-23T03:33:10.003Z,12.77
2023-05-23T03:35:38.398Z,12.84
2023-05-23T03:38:07.509Z,12.96
2023-05-23T03:40:37.262Z,13.16
2023-05-23T03:43:06.522Z,13.35
2023-05-23T03:45:38.102Z,13.50
2023-05-23T03:48:13.092Z,13.64
2023-05-23T03:50:43.027Z,14.00
2023-05-23T03:53:12.788Z,14.33
2023-05-23T03:55:42.834Z,14.57
2023-05-23T03:58:12.055Z,14.76
2023-05-23T04:00:42.216Z,14.91
2023-05-23T04:03:14.705Z,14.95
2023-05-23T04:05:43.405Z,14.99
2023-05-23T04:08:12.096Z,15.07
2023-05-23T04:10:40.586Z,15.22
2023-05-23T04:13:11.100Z,15.46
2023-05-23T04:15:40.012Z,15.62
2023-05-23T04:18:11.469Z,15.78
2023-05-23T04:20:39.927Z,15.77
2023-05-23T04:23:08.592Z,15.88
2023-05-23T04:25:41.057Z,15.94
2023-05-23T04:28:17.647Z,16.23
2023-05-23T04:30:46.686Z,16.52
2023-05-23T04:33:17.554Z,16.81
2023-05-23T04:35:46.989Z,16.87
2023-05-23T04:38:15.590Z,17.27
2023-05-23T04:40:44.605Z,17.20
2023-05-23T04:43:29.445Z,17.12
2023-05-23T04:46:03.762Z,17.22
2023-05-23T04:48:39.025Z,17.40
2023-05-23T04:51:07.923Z,17.52
2023-05-23T04:53:41.297Z,17.51
2023-05-23T04:56:11.673Z,17.57
2023-05-23T04:58:43.025Z,17.69
2023-05-23T05:01:14.370Z,17.95
2023-05-23T05:03:43.308Z,18.16
2023-05-23T05:06:11.721Z,18.38
2023-05-23T05:08:40.809Z,18.47
2023-05-23T05:11:10.976Z,18.15
2023-05-23T05:13:39.366Z,18.17
2023-05-23T05:16:09.434Z,18.22
2023-05-23T05:18:38.355Z,18.21
2023-05-23T05:21:08.274Z,17.95
2023-05-23T05:23:40.224Z,17.38
2023-05-23T05:26:10.205Z,17.10
2023-05-23T05:28:39.355Z,17.01
2023-05-23T05:31:10.227Z,16.98
2023-05-23T05:33:38.887Z,16.90
2023-05-23T05:36:13.412Z,16.60
2023-05-23T05:38:42.841Z,16.50
2023-05-23T05:41:11.692Z,16.44
2023-05-23T05:43:49.595Z,16.41
2023-05-23T05:46:19.533Z,16.42
2023-05-23T05:48:48.431Z,16.39
2023-05-23T05:51:18.764Z,16.31
2023-05-23T05:53:47.613Z,16.23
2023-05-23T05:56:16.732Z,16.24
2023-05-23T05:58:45.204Z,16.28
2023-05-23T06:01:15.843Z,16.34
2023-05-23T06:03:45.940Z,16.44
2023-05-23T06:06:14.819Z,16.50
2023-05-23T06:08:44.350Z,16.53
2023-05-23T06:11:17.196Z,16.60
2023-05-23T06:13:45.691Z,16.67
2023-05-23T06:16:15.323Z,16.74
2023-05-23T06:18:46.714Z,16.88
2023-05-23T06:21:15.186Z,17.12
2023-05-23T06:23:43.841Z,17.39
2023-05-23T06:26:12.354Z,17.54
2023-05-23T06:28:40.857Z,17.57
2023-05-23T06:31:11.001Z,17.65
2023-05-23T06:33:40.323Z,17.85
2023-05-23T06:36:10.140Z,17.89
2023-05-23T06:38:38.582Z,18.03
2023-05-23T06:41:08.306Z,18.33
2023-05-23T06:43:38.368Z,18.59
2023-05-23T06:46:23.487Z,18.87
2023-05-23T06:49:02.642Z,19.00
2023-05-23T06:51:38.220Z,19.09
2023-05-23T06:54:07.711Z,19.22
2023-05-23T06:56:36.749Z,19.58
2023-05-23T06:59:06.275Z,19.91
2023-05-23T07:01:35.078Z,20.27
2023-05-23T07:04:03.773Z,20.44
2023-05-23T07:06:32.933Z,20.35
2023-05-23T07:09:05.121Z,20.18
2023-05-23T07:11:33.675Z,20.40
2023-05-23T07:14:03.469Z,20.54
2023-05-23T07:16:41.544Z,20.34
2023-05-23T07:19:10.394Z,20.61
2023-05-23T07:21:48.756Z,20.76
2023-05-23T07:24:21.246Z,20.89
2023-05-23T07:26:50.320Z,21.10
2023-05-23T07:29:19.379Z,21.34
2023-05-23T07:31:49.465Z,21.49
2023-05-23T07:34:18.613Z,21.38
2023-05-23T07:36:56.579Z,21.43
2023-05-23T07:39:28.886Z,21.68
2023-05-23T07:41:59.537Z,21.97
2023-05-23T07:44:28.186Z,22.09
2023-05-23T07:46:57.124Z,22.07
2023-05-23T07:49:26.822Z,22.20
2023-05-23T07:51:56.181Z,22.22
2023-05-23T07:54:24.711Z,22.16
2023-05-23T07:56:58.586Z,22.12
2023-05-23T07:59:27.709Z,22.19
2023-05-23T08:01:56.580Z,22.16
2023-05-23T08:04:27.480Z,22.33
2023-05-23T08:09:33.374Z,22.57
2023-05-23T08:12:03.518Z,22.72
2023-05-23T08:14:49.150Z,22.66
2023-05-23T08:17:34.358Z,22.84
2023-05-23T08:20:05.244Z,23.08
2023-05-23T08:22:34.820Z,23.21
2023-05-23T08:25:04.027Z,23.30
2023-05-23T08:27:36.871Z,23.14
2023-05-23T08:30:14.505Z,23.30
2023-05-23T08:32:42.908Z,23.25
2023-05-23T08:35:11.300Z,23.39
2023-05-23T08:37:43.219Z,23.55
2023-05-23T08:40:16.205Z,23.44
2023-05-23T08:42:51.134Z,23.38
2023-05-23T08:45:20.012Z,23.57
2023-05-23T08:47:49.085Z,23.55
2023-05-23T08:50:22.897Z,23.52
2023-05-23T08:52:57.182Z,23.67
2023-05-23T08:55:29.587Z,23.61
2023-05-23T08:58:01.926Z,23.19
2023-05-23T09:00:44.584Z,22.98
2023-05-23T09:03:14.388Z,23.11
2023-05-23T09:06:03.727Z,23.15
2023-05-23T09:08:33.122Z,23.35
2023-05-23T09:11:03.220Z,23.62
2023-05-23T09:13:36.463Z,23.70
2023-05-23T09:16:09.531Z,23.54
2023-05-23T09:18:44.564Z,23.72
2023-05-23T09:21:16.119Z,23.89
2023-05-23T09:24:08.650Z,24.00
2023-05-23T09:26:38.855Z,23.80
2023-05-23T09:29:08.897Z,23.50
2023-05-23T09:31:37.739Z,23.45
2023-05-23T09:34:07.021Z,23.29
2023-05-23T09:36:36.587Z,23.33
2023-05-23T09:39:06.657Z,23.52
2023-05-23T09:41:36.062Z,23.71
2023-05-23T09:44:09.730Z,23.97
2023-05-23T09:46:39.567Z,24.30
2023-05-23T09:49:18.140Z,24.53
2023-05-23T09:52:01.667Z,24.64
2023-05-23T09:54:30.116Z,24.32
2023-05-23T09:57:01.640Z,24.06
2023-05-23T09:59:36.187Z,23.52
2023-05-23T10:02:07.915Z,23.78
2023-05-23T10:04:38.437Z,23.94
2023-05-23T10:07:14.532Z,24.17
2023-05-23T10:09:47.048Z,23.99
2023-05-23T10:12:48.906Z,23.66
2023-05-23T10:15:21.451Z,23.50
2023-05-23T10:18:03.877Z,23.66
2023-05-23T10:20:33.536Z,23.88
2023-05-23T10:23:02.554Z,24.22
2023-05-23T10:25:31.041Z,24.44
2023-05-23T10:28:03.271Z,24.62
2023-05-23T10:30:35.530Z,24.77
2023-05-23T10:33:06.171Z,24.84
2023-05-23T10:35:46.925Z,24.85
2023-05-23T10:38:29.485Z,24.82
2023-05-23T10:41:07.546Z,24.96
2023-05-23T10:43:45.954Z,24.96
2023-05-23T10:46:16.298Z,24.96
2023-05-23T10:48:45.841Z,24.95
2023-05-23T10:51:15.547Z,25.01
2023-05-23T10:53:45.309Z,25.09
2023-05-23T10:56:22.517Z,25.15
2023-05-23T10:58:54.996Z,25.33
2023-05-23T11:01:25.720Z,25.36
2023-05-23T11:03:56.102Z,25.39
2023-05-23T11:06:33.676Z,25.39
2023-05-23T11:09:07.509Z,25.26
2023-05-23T11:11:55.635Z,25.33
2023-05-23T11:14:33.828Z,25.11
2023-05-23T11:17:17.813Z,25.11
2023-05-23T11:20:00.998Z,24.90
2023-05-23T11:22:30.420Z,24.96
2023-05-23T11:24:59.505Z,25.13
2023-05-23T11:27:29.598Z,25.28
2023-05-23T11:30:03.084Z,25.12
2023-05-23T11:32:37.242Z,24.54
2023-05-23T11:35:07.226Z,24.45
2023-05-23T11:37:36.219Z,24.48
2023-05-23T11:40:32.637Z,24.47
2023-05-23T11:43:02.331Z,24.75
2023-05-23T11:45:31.923Z,25.02
2023-05-23T11:48:07.244Z,25.23
2023-05-23T11:50:44.340Z,25.13
2023-05-23T11:53:13.122Z,25.17
2023-05-23T11:55:42.369Z,25.16
2023-05-23T11:58:12.427Z,25.17
2023-05-23T12:00:45.372Z,25.17
2023-05-23T12:03:15.445Z,25.21
2023-05-23T12:05:45.217Z,25.22
2023-05-23T12:08:14.651Z,25.20
2023-05-23T12:10:51.985Z,25.07
2023-05-23T12:13:20.556Z,24.81
2023-05-23T12:15:52.784Z,24.61
2023-05-23T12:18:23.053Z,24.76
2023-05-23T12:20:51.771Z,25.00
2023-05-23T12:23:21.224Z,24.95
2023-05-23T12:25:52.862Z,25.01
2023-05-23T12:28:21.699Z,25.21
2023-05-23T12:30:50.402Z,25.37
2023-05-23T12:33:20.735Z,25.53
2023-05-23T12:35:50.736Z,25.71
2023-05-23T12:38:19.916Z,25.81
2023-05-23T12:40:48.267Z,25.86
2023-05-23T12:43:16.958Z,25.93
2023-05-23T12:45:45.234Z,25.99
2023-05-23T12:48:13.991Z,26.00
2023-05-23T12:50:42.371Z,25.85
2023-05-23T12:53:12.221Z,26.01
2023-05-23T12:55:40.847Z,26.03
2023-05-23T12:58:09.399Z,25.98
2023-05-23T13:00:37.870Z,25.97
2023-05-23T13:03:06.945Z,25.93
2023-05-23T13:05:35.369Z,25.84
2023-05-23T13:08:03.757Z,25.72
2023-05-23T13:10:34.095Z,25.55
2023-05-23T13:13:02.446Z,25.38
2023-05-23T13:15:30.968Z,25.21
2023-05-23T13:17:59.560Z,24.96
2023-05-23T13:20:30.249Z,24.82
2023-05-23T13:22:58.835Z,24.76
2023-05-23T13:25:28.204Z,24.71
2023-05-23T13:27:58.080Z,24.67
2023-05-23T13:30:26.718Z,24.62
2023-05-23T13:32:55.318Z,24.61
2023-05-23T13:35:23.881Z,24.53
2023-05-23T13:37:52.368Z,24.59
2023-05-23T13:40:22.470Z,24.56
2023-05-23T13:42:52.024Z,24.56
2023-05-23T13:45:23.101Z,24.54
2023-05-23T13:47:51.709Z,24.53
2023-05-23T13:50:20.759Z,24.51
2023-05-23T13:52:49.633Z,24.49
2023-05-23T13:55:19.035Z,24.44
2023-05-23T13:57:48.822Z,24.46
2023-05-23T14:00:17.639Z,24.43
2023-05-23T14:02:47.519Z,24.44
2023-05-23T14:05:16.001Z,24.40
2023-05-23T14:07:47.295Z,24.33
2023-05-23T14:10:17.397Z,24.32
2023-05-23T14:12:46.060Z,24.28
2023-05-23T14:15:14.608Z,24.27
2023-05-23T14:17:43.051Z,24.33
2023-05-23T14:20:13.660Z,24.37
2023-05-23T14:22:42.131Z,24.42
2023-05-23T14:25:11.739Z,24.47
2023-05-23T14:27:40.307Z,24.39
2023-05-23T14:30:09.945Z,24.53
2023-05-23T14:32:39.685Z,24.49
2023-05-23T14:35:10.738Z,24.46
2023-05-23T14:37:40.552Z,24.37
2023-05-23T14:40:11.076Z,24.12
2023-05-23T14:42:39.688Z,24.03
2023-05-23T14:45:08.586Z,23.99
2023-05-23T14:47:37.517Z,23.97
2023-05-23T14:50:06.501Z,23.90
2023-05-23T14:52:35.417Z,23.81
2023-05-23T14:55:05.574Z,23.70
2023-05-23T14:57:34.233Z,23.73
2023-05-23T15:00:05.023Z,23.66
2023-05-23T15:02:36.412Z,23.62
2023-05-23T15:05:04.913Z,23.54
2023-05-23T15:07:33.758Z,23.53
2023-05-23T15:10:03.014Z,23.42
2023-05-23T15:12:35.092Z,23.38
2023-05-23T15:15:04.476Z,23.35
2023-05-23T15:17:37.730Z,23.30
2023-05-23T15:20:07.768Z,23.24
2023-05-23T15:22:39.848Z,23.22
2023-05-23T15:25:10.635Z,23.16
2023-05-23T15:27:40.331Z,23.15
2023-05-23T15:30:09.964Z,23.12
2023-05-23T15:32:38.499Z,23.10
2023-05-23T15:35:07.855Z,23.06
2023-05-23T15:37:36.177Z,22.97
2023-05-23T15:40:05.061Z,22.83
2023-05-23T15:42:33.981Z,22.90
2023-05-23T15:45:03.821Z,22.80
2023-05-23T15:47:36.983Z,22.69
2023-05-23T15:50:06.104Z,22.65
2023-05-23T15:52:34.444Z,22.59
2023-05-23T15:55:05.656Z,22.56
2023-05-23T15:57:34.152Z,22.52
2023-05-23T16:00:04.049Z,22.53
2023-05-23T16:02:40.846Z,22.58
2023-05-23T16:05:09.524Z,22.69
2023-05-23T16:07:38.021Z,22.61
2023-05-23T16:10:07.513Z,22.59
2023-05-23T16:12:36.142Z,22.56
2023-05-23T16:15:06.563Z,22.57
2023-05-23T16:17:34.913Z,22.51
2023-05-23T16:20:04.425Z,22.40
2023-05-23T16:22:33.215Z,22.30
2023-05-23T16:25:01.700Z,22.10
2023-05-23T16:27:30.826Z,22.02
2023-05-23T16:29:59.128Z,21.80
2023-05-23T16:32:29.475Z,21.73
2023-05-23T16:34:57.814Z,21.66
2023-05-23T16:37:26.140Z,21.53
2023-05-23T16:39:54.377Z,21.43
2023-05-23T16:42:22.655Z,21.32
2023-05-23T16:44:50.962Z,21.23
2023-05-23T16:47:19.395Z,21.16
2023-05-23T16:49:49.066Z,21.05
2023-05-23T16:52:18.614Z,20.98
2023-05-23T16:54:47.129Z,20.85
2023-05-23T16:57:15.732Z,20.78
2023-05-23T16:59:44.146Z,20.69
2023-05-23T17:02:16.213Z,20.64
2023-05-23T17:04:44.845Z,20.55
2023-05-23T17:07:15.967Z,20.49
2023-05-23T17:09:44.914Z,20.41
2023-05-23T17:12:13.938Z,20.33
2023-05-23T17:14:42.754Z,20.27
2023-05-23T17:17:11.633Z,20.18
2023-05-23T17:19:41.070Z,20.10
2023-05-23T17:22:09.803Z,20.03
2023-05-23T17:24:39.493Z,19.85
2023-05-23T17:27:08.250Z,19.83
2023-05-23T17:29:36.735Z,19.72
2023-05-23T17:32:05.350Z,19.64
2023-05-23T17:34:33.673Z,19.57
2023-05-23T17:37:01.998Z,19.48
2023-05-23T17:39:30.356Z,19.38
2023-05-23T17:42:01.065Z,19.33
2023-05-23T17:44:29.416Z,19.24
2023-05-23T17:46:57.812Z,19.10
2023-05-23T17:49:26.380Z,19.05
2023-05-23T17:51:54.874Z,18.95
2023-05-23T17:54:23.314Z,18.83
2023-05-23T17:56:51.704Z,18.64
2023-05-23T17:59:22.072Z,18.59
2023-05-23T18:01:50.527Z,18.49
2023-05-23T18:04:19.890Z,18.40
2023-05-23T18:06:48.582Z,18.27
2023-05-23T18:09:17.405Z,18.15
2023-05-23T18:11:45.842Z,18.08
2023-05-23T18:14:14.195Z,17.97
2023-05-23T18:16:44.043Z,17.88
2023-05-23T18:19:12.540Z,17.85
2023-05-23T18:21:40.949Z,17.79
2023-05-23T18:24:11.697Z,17.64
2023-05-23T18:26:42.434Z,17.64
2023-05-23T18:29:10.812Z,17.52
2023-05-23T18:31:39.148Z,17.41
2023-05-23T18:34:09.089Z,17.30
2023-05-23T18:36:37.981Z,17.23
2023-05-23T18:39:06.348Z,17.15
2023-05-23T18:41:34.658Z,17.07
2023-05-23T18:44:05.100Z,16.98
2023-05-23T18:46:33.484Z,16.74
2023-05-23T18:49:01.892Z,16.69
2023-05-23T18:51:32.377Z,16.42
2023-05-23T18:54:00.733Z,16.26
2023-05-23T18:56:29.082Z,16.23
2023-05-23T18:58:57.400Z,16.12
2023-05-23T19:01:26.138Z,16.08
2023-05-23T19:03:54.845Z,16.00
2023-05-23T19:06:23.236Z,15.93
2023-05-23T19:08:53.092Z,15.87
2023-05-23T19:11:21.861Z,15.78
2023-05-23T19:13:50.548Z,15.72
2023-05-23T19:16:20.631Z,15.61
2023-05-23T19:18:49.109Z,15.48
2023-05-23T19:21:17.501Z,15.39
2023-05-23T19:23:46.046Z,15.34
2023-05-23T19:26:17.324Z,15.31
2023-05-23T19:28:46.947Z,15.31
2023-05-23T19:31:15.282Z,15.28
2023-05-23T19:33:43.759Z,15.14
2023-05-23T19:36:12.267Z,15.01
2023-05-23T19:38:40.840Z,14.97
2023-05-23T19:41:15.517Z,14.88
2023-05-23T19:43:51.961Z,14.83
2023-05-23T19:46:20.612Z,14.76
2023-05-23T19:48:49.006Z,14.72
2023-05-23T19:51:17.544Z,14.65
2023-05-23T19:53:45.807Z,14.63
2023-05-23T19:56:14.188Z,14.61
2023-05-23T19:58:43.051Z,14.52
2023-05-23T20:01:12.910Z,14.45
2023-05-23T20:03:41.618Z,14.45
2023-05-23T20:06:10.991Z,14.43
2023-05-23T20:08:39.490Z,14.40
2023-05-23T20:11:07.901Z,14.36
2023-05-23T20:13:37.744Z,14.33
2023-05-23T20:16:07.943Z,14.33
2023-05-23T20:18:37.704Z,14.32
2023-05-23T20:21:06.337Z,14.28
2023-05-23T20:23:34.846Z,14.24
2023-05-23T20:26:03.497Z,14.20
2023-05-23T20:28:32.825Z,14.12
2023-05-23T20:31:01.550Z,14.02
2023-05-23T20:33:30.082Z,13.91
2023-05-23T20:36:00.014Z,13.72
2023-05-23T20:38:29.086Z,13.63
2023-05-23T20:40:57.481Z,13.45
2023-05-23T20:43:28.321Z,13.45
2023-05-23T20:45:57.517Z,13.42
2023-05-23T20:48:26.534Z,13.33
2023-05-23T20:50:55.797Z,13.25
2023-05-23T20:53:25.534Z,13.16
2023-05-23T20:55:54.009Z,13.19
2023-05-23T20:58:22.648Z,13.14
2023-05-23T21:00:51.790Z,13.14
2023-05-23T21:03:20.603Z,13.12
2023-05-23T21:05:49.125Z,13.07
2023-05-23T21:08:19.064Z,13.05
2023-05-23T21:10:52.272Z,12.91
2023-05-23T21:13:22.645Z,12.93
2023-05-23T21:15:51.410Z,12.89
2023-05-23T21:18:19.718Z,12.81
2023-05-23T21:20:48.110Z,12.72
2023-05-23T21:23:16.644Z,12.74
2023-05-23T21:25:44.967Z,12.71
2023-05-23T21:28:14.822Z,12.61
2023-05-23T21:30:43.946Z,12.68
2023-05-23T21:33:12.766Z,12.64
2023-05-23T21:35:45.007Z,12.64
2023-05-23T21:38:13.353Z,12.63
2023-05-23T21:40:42.046Z,12.56
2023-05-23T21:43:10.675Z,12.55
2023-05-23T21:45:40.592Z,12.50
2023-05-23T21:48:09.014Z,12.41
2023-05-23T21:50:37.756Z,12.31
2023-05-23T21:53:06.148Z,12.29
2023-05-23T21:55:34.412Z,12.21
2023-05-23T21:58:02.815Z,12.22
2023-05-23T22:00:31.310Z,12.21
2023-05-23T22:03:01.254Z,12.18
2023-05-23T22:05:32.641Z,12.05
2023-05-23T22:08:01.071Z,12.07
2023-05-23T22:10:29.420Z,12.00
2023-05-23T22:12:57.786Z,11.79
2023-05-23T22:15:26.425Z,11.73
2023-05-23T22:17:56.201Z,11.67
2023-05-23T22:20:26.117Z,11.53
2023-05-23T22:22:54.469Z,11.50
2023-05-23T22:25:23.059Z,11.41
2023-05-23T22:27:51.374Z,11.47
2023-05-23T22:30:19.761Z,11.32
2023-05-23T22:32:48.112Z,11.38
2023-05-23T22:35:17.723Z,11.39
2023-05-23T22:37:48.037Z,11.35
2023-05-23T22:40:16.661Z,11.37
2023-05-23T22:42:44.950Z,11.34
2023-05-23T22:45:13.804Z,11.33
2023-05-23T22:47:42.326Z,11.29
2023-05-23T22:50:15.186Z,11.20
2023-05-23T22:52:44.065Z,11.32
2023-05-23T22:55:13.910Z,11.33
2023-05-23T22:57:42.182Z,11.29
2023-05-23T23:00:13.530Z,11.29
2023-05-23T23:02:44.184Z,11.28
2023-05-23T23:05:13.016Z,11.18
2023-05-23T23:07:41.405Z,11.29
2023-05-23T23:10:10.939Z,11.28
2023-05-23T23:12:40.782Z,11.25
2023-05-23T23:15:10.397Z,11.23
2023-05-23T23:17:38.993Z,11.23
2023-05-23T23:20:09.298Z,11.13
2023-05-23T23:22:37.946Z,11.22
2023-05-23T23:25:10.340Z,11.06
2023-05-23T23:27:41.465Z,10.85
2023-05-23T23:30:10.793Z,10.72
2023-05-23T23:32:39.438Z,10.75
2023-05-23T23:35:08.248Z,10.74
2023-05-23T23:37:36.852Z,10.75
2023-05-23T23:40:06.327Z,10.68
2023-05-23T23:42:34.789Z,10.67
2023-05-23T23:45:05.126Z,10.58
2023-05-23T23:47:35.933Z,10.57
2023-05-23T23:50:04.391Z,10.66
2023-05-23T23:52:33.725Z,10.54
2023-05-23T23:55:02.382Z,10.65
2023-05-23T23:57:34.621Z,10.66
